Pescabona Cinco — CNA4021 — position and weather

sailwx.info

Track history (hours):
 
Tides and Currents Weather Stations Pressure Air Temp Water Temp Dewpoint Dewpoint Depression Visibility Wind Speed Wind Dir Waves Ship Positions

Pescabona Cinco

Last reported at 2017-Sep-18 17:41 UTC. Time now 2017-Sep-24 14:21 UTC.
Position N 34°42' W 006°48'.

Length 28 m.

Type: Fishing. MMSI: 242048100.

Date/timePositionNaut miles runAvg speedWind from/ knotsBaromVisibWave heightAir tempDewpointWater temp
2017-Sep-18 17:41N 34°42' W 006°48'1 3.4
2017-Sep-18 17:30N 34°42' W 006°48'11 0.5
2017-Sep-17 20:35N 34°34' W 006°56'1 3.2
2017-Sep-17 20:08N 34°36' W 006°56'6 3.1
2017-Sep-17 18:20N 34°39' W 006°50'  
2017-Sep-14 15:49N 35°29' W 006°33'1 3.3
2017-Sep-14 15:30N 35°30' W 006°32'8 0.3
2017-Sep-13 15:03N 35°22' W 006°35'1 3.2
2017-Sep-13 14:52N 35°22' W 006°35'1 3.2
2017-Sep-13 14:28N 35°21' W 006°35'3 4.5
2017-Sep-13 13:54N 35°18' W 006°36'1 1.4
2017-Sep-13 13:30N 35°18' W 006°36'2 3.2
2017-Sep-13 13:00N 35°16' W 006°37'2 3.3
2017-Sep-13 12:28N 35°14' W 006°38'2 3.2
2017-Sep-13 11:59N 35°13' W 006°38'2 3.3
2017-Sep-13 11:30N 35°11' W 006°38'2 3.3
2017-Sep-13 10:48N 35°09' W 006°38'24 2.9
2017-Sep-13 02:34N 34°51' W 006°58'0 2.9
2017-Sep-13 02:26N 34°51' W 006°58'3 2.9
2017-Sep-13 01:29N 34°48' W 006°57'1 2.9
2017-Sep-13 00:59N 34°47' W 006°57'9 0.2
2017-Sep-11 13:26N 34°47' W 006°47'  
2017-Sep-08 23:00N 34°57' W 006°56'4 7.4
2017-Sep-08 22:30N 34°54' W 006°57'2 1.5
2017-Sep-08 21:14N 34°56' W 006°56'2 3.4
2017-Sep-08 20:45N 34°56' W 006°54'1 3.5
2017-Sep-08 20:30N 34°56' W 006°53'  
Track history (hours):
 
Tides and Currents Weather Stations Pressure Air Temp Water Temp Dewpoint Dewpoint Depression Visibility Wind Speed Wind Dir Waves Ship Positions

Pescabona Cinco

Last reported at 2017-Sep-18 17:41 UTC. Time now 2017-Sep-24 14:21 UTC.
Position N 34°42' W 006°48'.

Length 28 m.

Type: Fishing. MMSI: 242048100.

Date/timePositionNaut miles runAvg speedWind from/ knotsBaromVisibWave heightAir tempDewpointWater temp
2017-Sep-18 17:41N 34°42' W 006°48'1 3.4
2017-Sep-18 17:30N 34°42' W 006°48'11 0.5
2017-Sep-17 20:35N 34°34' W 006°56'1 3.2
2017-Sep-17 20:08N 34°36' W 006°56'6 3.1
2017-Sep-17 18:20N 34°39' W 006°50'  
2017-Sep-14 15:49N 35°29' W 006°33'1 3.3
2017-Sep-14 15:30N 35°30' W 006°32'8 0.3
2017-Sep-13 15:03N 35°22' W 006°35'1 3.2
2017-Sep-13 14:52N 35°22' W 006°35'1 3.2
2017-Sep-13 14:28N 35°21' W 006°35'3 4.5
2017-Sep-13 13:54N 35°18' W 006°36'1 1.4
2017-Sep-13 13:30N 35°18' W 006°36'2 3.2
2017-Sep-13 13:00N 35°16' W 006°37'2 3.3
2017-Sep-13 12:28N 35°14' W 006°38'2 3.2
2017-Sep-13 11:59N 35°13' W 006°38'2 3.3
2017-Sep-13 11:30N 35°11' W 006°38'2 3.3
2017-Sep-13 10:48N 35°09' W 006°38'24 2.9
2017-Sep-13 02:34N 34°51' W 006°58'0 2.9
2017-Sep-13 02:26N 34°51' W 006°58'3 2.9
2017-Sep-13 01:29N 34°48' W 006°57'1 2.9
2017-Sep-13 00:59N 34°47' W 006°57'9 0.2
2017-Sep-11 13:26N 34°47' W 006°47'  
2017-Sep-08 23:00N 34°57' W 006°56'4 7.4
2017-Sep-08 22:30N 34°54' W 006°57'2 1.5
2017-Sep-08 21:14N 34°56' W 006°56'2 3.4
2017-Sep-08 20:45N 34°56' W 006°54'1 3.5
2017-Sep-08 20:30N 34°56' W 006°53'  

Dump ship's entire track history